createdAt,value
2018-05-10T00:01:10.897Z,74.90
2018-05-10T00:03:37.549Z,75.30
2018-05-10T00:06:04.132Z,75.30
2018-05-10T00:08:30.686Z,74.90
2018-05-10T00:10:57.664Z,74.80
2018-05-10T00:13:24.201Z,74.80
2018-05-10T00:15:50.793Z,74.90
2018-05-10T00:18:17.420Z,74.60
2018-05-10T00:20:43.991Z,74.70
2018-05-10T00:23:10.584Z,74.90
2018-05-10T00:25:37.136Z,74.80
2018-05-10T00:28:03.776Z,75.60
2018-05-10T00:30:30.408Z,75.70
2018-05-10T00:32:56.965Z,75.40
2018-05-10T00:35:23.540Z,75.20
2018-05-10T00:37:50.110Z,76.10
2018-05-10T00:40:16.744Z,75.80
2018-05-10T00:42:43.700Z,75.00
2018-05-10T00:45:10.625Z,75.40
2018-05-10T00:47:37.212Z,75.40
2018-05-10T00:50:04.171Z,74.80
2018-05-10T00:52:30.813Z,74.80
2018-05-10T00:54:57.812Z,76.00
2018-05-10T00:57:24.355Z,76.00
2018-05-10T00:59:50.939Z,74.80
2018-05-10T01:02:17.544Z,74.40
2018-05-10T01:04:44.183Z,74.90
2018-05-10T01:07:11.119Z,74.60
2018-05-10T01:09:38.050Z,75.30
2018-05-10T01:12:04.657Z,75.30
2018-05-10T01:14:31.207Z,75.80
2018-05-10T01:16:57.853Z,75.70
2018-05-10T01:19:24.475Z,75.00
2018-05-10T01:21:51.484Z,75.90
2018-05-10T01:24:18.087Z,75.90
2018-05-10T01:26:45.052Z,74.80
2018-05-10T01:29:11.604Z,74.80
2018-05-10T01:31:38.196Z,74.70
2018-05-10T01:34:04.838Z,74.70
2018-05-10T01:36:31.390Z,75.60
2018-05-10T01:38:57.976Z,75.20
2018-05-10T01:41:24.913Z,75.10
2018-05-10T01:43:51.508Z,75.10
2018-05-10T01:46:18.111Z,74.60
2018-05-10T01:48:44.674Z,74.40
2018-05-10T01:51:11.624Z,74.20
2018-05-10T01:53:38.180Z,74.20
2018-05-10T01:56:05.121Z,74.90
2018-05-10T01:58:32.077Z,74.40
2018-05-10T02:00:58.636Z,74.40
2018-05-10T02:03:25.600Z,74.70
2018-05-10T02:05:52.551Z,75.10
2018-05-10T02:08:19.521Z,74.70
2018-05-10T02:10:46.161Z,74.70
2018-05-10T02:13:13.100Z,75.30
2018-05-10T02:15:39.684Z,75.30
2018-05-10T02:18:06.260Z,75.30
2018-05-10T02:20:32.868Z,75.10
2018-05-10T02:22:59.833Z,75.50
2018-05-10T02:25:26.391Z,75.60
2018-05-10T02:27:52.980Z,76.50
2018-05-10T02:30:19.529Z,76.10
2018-05-10T02:32:46.152Z,76.30
2018-05-10T02:35:12.774Z,76.40
2018-05-10T02:37:39.334Z,76.90
2018-05-10T02:40:05.924Z,76.80
2018-05-10T02:42:32.495Z,76.90
2018-05-10T02:44:59.538Z,77.40
2018-05-10T02:47:26.105Z,77.40
2018-05-10T02:49:53.037Z,77.50
2018-05-10T02:52:19.628Z,77.60
2018-05-10T02:54:46.189Z,77.00
2018-05-10T02:57:12.816Z,76.80
2018-05-10T02:59:39.431Z,76.70
2018-05-10T03:02:06.025Z,77.20
2018-05-10T03:04:32.909Z,77.20
2018-05-10T03:06:59.473Z,77.20
2018-05-10T03:09:26.051Z,76.80
2018-05-10T03:11:52.680Z,76.90
2018-05-10T03:14:19.252Z,76.70
2018-05-10T03:16:45.855Z,76.80
2018-05-10T03:19:12.434Z,76.70
2018-05-10T03:21:39.454Z,77.00
2018-05-10T03:24:06.044Z,77.00
2018-05-10T03:26:32.601Z,77.20
2018-05-10T03:28:59.547Z,77.20
2018-05-10T03:31:26.477Z,77.40
2018-05-10T03:33:53.084Z,77.40
2018-05-10T03:36:19.671Z,77.20
2018-05-10T03:38:46.231Z,76.90
2018-05-10T03:41:12.857Z,76.90
2018-05-10T03:43:39.407Z,76.80
2018-05-10T03:46:06.002Z,77.40
2018-05-10T03:48:32.956Z,77.80
2018-05-10T03:50:59.872Z,78.40
2018-05-10T03:53:26.455Z,78.40
2018-05-10T03:55:53.424Z,78.00
2018-05-10T03:58:20.397Z,77.70
2018-05-10T04:00:46.989Z,77.70
2018-05-10T04:03:49.024Z,78.10
2018-05-10T04:06:27.987Z,77.70
2018-05-10T04:09:06.696Z,78.00
2018-05-10T04:11:33.320Z,77.70
2018-05-10T04:14:00.248Z,77.50
2018-05-10T04:16:26.832Z,77.50
2018-05-10T04:18:53.802Z,77.40
2018-05-10T04:21:20.414Z,77.40
2018-05-10T04:23:47.043Z,77.30
2018-05-10T04:26:13.592Z,77.30
2018-05-10T04:28:40.189Z,76.90
2018-05-10T04:31:06.740Z,76.70
2018-05-10T04:33:33.320Z,76.50
2018-05-10T04:35:59.893Z,76.10
2018-05-10T04:38:26.444Z,75.90
2018-05-10T04:40:53.045Z,75.50
2018-05-10T04:43:19.625Z,75.60
2018-05-10T04:45:46.272Z,75.20
2018-05-10T04:48:12.863Z,75.30
2018-05-10T04:50:39.822Z,75.00
2018-05-10T04:53:06.376Z,75.00
2018-05-10T04:55:32.948Z,74.60
2018-05-10T04:57:59.501Z,74.80
2018-05-10T05:00:26.173Z,74.60
2018-05-10T05:02:52.789Z,73.90
2018-05-10T05:05:19.356Z,73.50
2018-05-10T05:07:45.977Z,72.80
2018-05-10T05:10:12.537Z,72.40
2018-05-10T05:12:39.121Z,72.00
2018-05-10T05:15:05.700Z,71.40
2018-05-10T05:17:32.632Z,70.60
2018-05-10T05:19:59.272Z,70.60
2018-05-10T05:22:25.832Z,70.20
2018-05-10T05:24:52.411Z,69.70
2018-05-10T05:27:19.002Z,68.90
2018-05-10T05:29:45.591Z,67.90
2018-05-10T05:32:12.543Z,67.10
2018-05-10T05:34:39.096Z,67.00
2018-05-10T05:37:05.693Z,66.70
2018-05-10T05:39:32.263Z,67.20
2018-05-10T05:41:58.801Z,67.50
2018-05-10T05:44:25.377Z,67.30
2018-05-10T05:46:51.928Z,66.70
2018-05-10T05:49:18.880Z,66.20
2018-05-10T05:51:45.477Z,66.20
2018-05-10T05:54:12.015Z,66.50
2018-05-10T05:56:38.593Z,65.80
2018-05-10T05:59:05.123Z,65.00
2018-05-10T06:01:31.695Z,65.60
2018-05-10T06:03:58.279Z,64.90
2018-05-10T06:06:25.176Z,63.50
2018-05-10T06:08:51.760Z,63.50
2018-05-10T06:11:18.328Z,63.90
2018-05-10T06:13:45.285Z,64.00
2018-05-10T06:16:12.201Z,64.00
2018-05-10T06:18:38.844Z,64.20
2018-05-10T06:21:05.420Z,63.60
2018-05-10T06:23:31.988Z,64.40
2018-05-10T06:25:59.681Z,62.50
2018-05-10T06:28:26.259Z,62.50
2018-05-10T06:30:52.805Z,61.30
2018-05-10T06:33:19.433Z,61.00
2018-05-10T06:35:46.001Z,60.80
2018-05-10T06:38:12.625Z,60.50
2018-05-10T06:40:39.219Z,60.90
2018-05-10T06:43:05.752Z,60.40
2018-05-10T06:45:32.336Z,60.20
2018-05-10T06:47:59.260Z,58.40
2018-05-10T06:50:25.833Z,58.40
2018-05-10T06:52:52.405Z,56.90
2018-05-10T06:55:19.384Z,57.20
2018-05-10T06:57:45.962Z,57.20
2018-05-10T07:00:12.531Z,57.20
2018-05-10T07:02:39.144Z,55.90
2018-05-10T07:05:05.740Z,56.10
2018-05-10T07:07:32.672Z,56.10
2018-05-10T07:09:59.498Z,56.10
2018-05-10T07:12:25.868Z,56.50
2018-05-10T07:14:52.440Z,57.10
2018-05-10T07:17:19.412Z,56.70
2018-05-10T07:19:46.026Z,56.70
2018-05-10T07:22:12.620Z,56.40
2018-05-10T07:24:39.156Z,56.40
2018-05-10T07:27:05.756Z,57.20
2018-05-10T07:29:32.373Z,56.60
2018-05-10T07:31:58.964Z,55.20
2018-05-10T07:34:25.540Z,56.10
2018-05-10T07:36:52.112Z,55.50
2018-05-10T07:39:18.688Z,53.90
2018-05-10T07:41:45.293Z,55.30
2018-05-10T07:44:11.913Z,53.80
2018-05-10T07:46:38.489Z,54.90
2018-05-10T07:49:05.099Z,54.20
2018-05-10T07:51:31.648Z,52.20
2018-05-10T07:53:58.236Z,53.60
2018-05-10T07:56:24.817Z,53.60
2018-05-10T07:58:51.368Z,52.50
2018-05-10T08:01:17.988Z,55.70
2018-05-10T08:03:44.537Z,54.30
2018-05-10T08:06:11.126Z,53.30
2018-05-10T08:08:44.661Z,53.30
2018-05-10T08:11:11.608Z,52.30
2018-05-10T08:13:38.203Z,52.30
2018-05-10T08:16:04.765Z,53.50
2018-05-10T08:18:31.353Z,53.10
2018-05-10T08:20:57.967Z,52.90
2018-05-10T08:23:24.643Z,53.30
2018-05-10T08:25:51.263Z,52.50
2018-05-10T08:28:17.892Z,51.90
2018-05-10T08:30:44.540Z,53.20
2018-05-10T08:33:11.109Z,52.30
2018-05-10T08:35:37.692Z,53.40
2018-05-10T08:38:04.240Z,52.50
2018-05-10T08:40:30.835Z,53.00
2018-05-10T08:42:57.488Z,53.70
2018-05-10T08:45:24.365Z,56.20
2018-05-10T08:47:50.948Z,56.20
2018-05-10T08:50:17.540Z,54.70
2018-05-10T08:52:44.121Z,55.50
2018-05-10T08:55:10.709Z,54.90
2018-05-10T08:57:37.632Z,54.50
2018-05-10T09:00:04.311Z,54.60
2018-05-10T09:02:30.897Z,54.30
2018-05-10T09:04:57.474Z,54.60
2018-05-10T09:07:24.086Z,55.50
2018-05-10T09:09:50.644Z,55.20
2018-05-10T09:12:17.255Z,57.10
2018-05-10T09:14:43.817Z,57.50
2018-05-10T09:17:10.395Z,58.60
2018-05-10T09:19:36.973Z,60.00
2018-05-10T09:22:03.542Z,60.20
2018-05-10T09:24:30.137Z,59.10
2018-05-10T09:26:56.689Z,57.70
2018-05-10T09:29:23.309Z,57.80
2018-05-10T09:31:49.901Z,56.90
2018-05-10T09:34:16.468Z,56.50
2018-05-10T09:36:43.426Z,56.20
2018-05-10T09:39:10.404Z,55.00
2018-05-10T09:41:37.353Z,56.00
2018-05-10T09:44:04.324Z,55.00
2018-05-10T09:46:30.872Z,55.00
2018-05-10T09:48:57.444Z,54.70
2018-05-10T09:51:24.120Z,54.40
2018-05-10T09:53:50.768Z,55.20
2018-05-10T09:56:17.761Z,54.00
2018-05-10T09:58:44.716Z,54.30
2018-05-10T10:01:12.077Z,54.30
2018-05-10T10:03:39.066Z,54.10
2018-05-10T10:06:05.944Z,54.10
2018-05-10T10:08:32.704Z,52.30
2018-05-10T10:10:59.284Z,51.90
2018-05-10T10:13:26.280Z,52.00
2018-05-10T10:15:52.881Z,52.00
2018-05-10T10:18:20.330Z,53.50
2018-05-10T10:20:46.920Z,53.50
2018-05-10T10:23:13.973Z,51.30
2018-05-10T10:25:40.971Z,50.60
2018-05-10T10:28:07.578Z,50.60
2018-05-10T10:30:34.525Z,50.70
2018-05-10T10:33:01.504Z,50.30
2018-05-10T10:35:28.047Z,50.30
2018-05-10T10:37:54.992Z,50.30
2018-05-10T10:40:21.896Z,50.50
2018-05-10T10:42:48.777Z,50.60
2018-05-10T10:45:15.368Z,50.80
2018-05-10T10:47:41.921Z,51.00
2018-05-10T10:50:08.510Z,51.70
2018-05-10T10:52:35.060Z,51.20
2018-05-10T10:55:01.607Z,50.60
2018-05-10T10:57:28.188Z,51.70
2018-05-10T10:59:55.138Z,49.20
2018-05-10T11:02:22.060Z,49.40
2018-05-10T11:04:49.454Z,49.40
2018-05-10T11:07:16.048Z,49.00
2018-05-10T11:09:42.641Z,47.70
2018-05-10T11:12:09.253Z,47.20
2018-05-10T11:14:35.796Z,47.70
2018-05-10T11:17:02.376Z,48.80
2018-05-10T11:19:28.968Z,48.30
2018-05-10T11:21:55.904Z,48.00
2018-05-10T11:24:22.865Z,49.30
2018-05-10T11:26:49.444Z,49.40
2018-05-10T11:29:16.065Z,51.00
2018-05-10T11:31:43.017Z,51.40
2018-05-10T11:34:09.929Z,51.00
2018-05-10T11:36:36.500Z,51.00
2018-05-10T11:39:03.184Z,51.30
2018-05-10T11:41:29.736Z,51.30
2018-05-10T11:43:59.614Z,50.90
2018-05-10T11:46:26.169Z,50.90
2018-05-10T11:48:52.736Z,51.00
2018-05-10T11:51:19.290Z,51.90
2018-05-10T11:53:45.892Z,49.90
2018-05-10T11:56:12.475Z,51.20
2018-05-10T11:58:39.037Z,51.20
2018-05-10T12:01:05.995Z,52.20
2018-05-10T12:03:32.947Z,52.60
2018-05-10T12:05:59.997Z,51.30
2018-05-10T12:08:26.525Z,51.40
2018-05-10T12:10:53.076Z,50.60
2018-05-10T12:13:19.702Z,51.60
2018-05-10T12:15:46.277Z,52.50
2018-05-10T12:18:12.860Z,52.20
2018-05-10T12:20:39.441Z,53.90
2018-05-10T12:23:05.994Z,52.10
2018-05-10T12:25:32.587Z,53.30
2018-05-10T12:27:59.160Z,53.00
2018-05-10T12:30:25.817Z,53.30
2018-05-10T12:32:52.405Z,53.50
2018-05-10T12:35:18.963Z,53.60
2018-05-10T12:37:45.547Z,53.30
2018-05-10T12:40:12.102Z,52.80
2018-05-10T12:42:38.701Z,51.20
2018-05-10T12:45:05.282Z,52.20
2018-05-10T12:47:31.856Z,54.50
2018-05-10T12:49:58.444Z,55.00
2018-05-10T12:52:24.986Z,56.10
2018-05-10T12:54:51.957Z,56.00
2018-05-10T12:57:18.548Z,56.00
2018-05-10T12:59:45.094Z,56.10
2018-05-10T13:02:11.680Z,56.80
2018-05-10T13:04:38.220Z,57.30
2018-05-10T13:07:04.813Z,57.60
2018-05-10T13:09:31.812Z,56.90
2018-05-10T13:11:58.360Z,56.90
2018-05-10T13:14:24.940Z,56.20
2018-05-10T13:16:51.493Z,55.20
2018-05-10T13:19:18.163Z,53.40
2018-05-10T13:21:44.779Z,54.10
2018-05-10T13:24:11.322Z,54.50
2018-05-10T13:26:37.900Z,54.20
2018-05-10T13:29:04.879Z,53.10
2018-05-10T13:31:31.492Z,53.10
2018-05-10T13:33:58.121Z,52.40
2018-05-10T13:36:24.688Z,50.80
2018-05-10T13:38:51.278Z,50.80
2018-05-10T13:41:17.840Z,51.10
2018-05-10T13:43:44.434Z,50.30
2018-05-10T13:46:11.034Z,49.60
2018-05-10T13:48:37.610Z,50.20
2018-05-10T13:51:04.256Z,52.40
2018-05-10T13:53:30.812Z,51.70
2018-05-10T13:55:57.413Z,52.00
2018-05-10T13:58:24.002Z,52.00
2018-05-10T14:00:50.576Z,51.50
2018-05-10T14:03:17.573Z,51.50
2018-05-10T14:05:44.128Z,51.50
2018-05-10T14:08:10.717Z,51.70
2018-05-10T14:10:37.685Z,52.40
2018-05-10T14:13:04.652Z,51.20
2018-05-10T14:15:31.702Z,51.20
2018-05-10T14:17:58.648Z,51.60
2018-05-10T14:20:25.196Z,51.60
2018-05-10T14:22:51.784Z,51.30
2018-05-10T14:25:18.473Z,52.40
2018-05-10T14:27:45.009Z,49.80
2018-05-10T14:30:11.634Z,50.00
2018-05-10T14:32:38.232Z,52.20
2018-05-10T14:35:04.842Z,52.20
2018-05-10T14:37:31.451Z,51.70
2018-05-10T14:39:58.401Z,52.70
2018-05-10T14:42:25.029Z,52.70
2018-05-10T14:44:51.596Z,52.60
2018-05-10T14:47:18.204Z,53.00
2018-05-10T14:49:44.813Z,53.10
2018-05-10T14:52:11.355Z,54.60
2018-05-10T14:54:38.301Z,55.00
2018-05-10T14:57:05.401Z,54.50
2018-05-10T14:59:32.292Z,54.50
2018-05-10T15:01:59.148Z,56.00
2018-05-10T15:04:25.703Z,55.20
2018-05-10T15:06:52.301Z,55.70
2018-05-10T15:09:18.918Z,56.30
2018-05-10T15:11:46.717Z,56.40
2018-05-10T15:14:13.324Z,56.40
2018-05-10T15:16:39.886Z,57.60
2018-05-10T15:19:06.847Z,56.10
2018-05-10T15:21:33.791Z,56.80
2018-05-10T15:24:00.366Z,56.80
2018-05-10T15:26:26.965Z,55.70
2018-05-10T15:28:53.571Z,55.40
2018-05-10T15:31:20.214Z,55.80
2018-05-10T15:33:46.794Z,56.50
2018-05-10T15:36:13.403Z,55.00
2018-05-10T15:38:40.361Z,55.50
2018-05-10T15:41:06.932Z,55.50
2018-05-10T15:43:33.515Z,54.00
2018-05-10T15:46:00.070Z,54.20
2018-05-10T15:48:26.653Z,54.20
2018-05-10T15:50:53.253Z,54.70
2018-05-10T15:53:19.815Z,55.00
2018-05-10T15:55:46.437Z,55.30
2018-05-10T15:58:13.023Z,56.00
2018-05-10T16:00:39.608Z,55.30
2018-05-10T16:03:06.236Z,55.50
2018-05-10T16:05:32.800Z,55.60
2018-05-10T16:07:59.392Z,56.70
2018-05-10T16:10:25.957Z,56.60
2018-05-10T16:12:52.648Z,57.00
2018-05-10T16:15:19.237Z,56.70
2018-05-10T16:17:45.847Z,57.50
2018-05-10T16:20:12.433Z,58.00
2018-05-10T16:22:38.980Z,58.60
2018-05-10T16:25:05.572Z,58.90
2018-05-10T16:27:32.565Z,58.60
2018-05-10T16:29:59.148Z,58.60
2018-05-10T16:32:25.732Z,58.50
2018-05-10T16:34:52.300Z,58.20
2018-05-10T16:37:18.897Z,58.00
2018-05-10T16:39:45.894Z,57.80
2018-05-10T16:42:12.456Z,57.80
2018-05-10T16:44:39.034Z,57.60
2018-05-10T16:47:05.600Z,58.00
2018-05-10T16:49:32.206Z,58.10
2018-05-10T16:51:58.867Z,58.30
2018-05-10T16:54:25.364Z,58.10
2018-05-10T16:56:51.952Z,58.80
2018-05-10T16:59:18.499Z,58.40
2018-05-10T17:01:45.096Z,58.80
2018-05-10T17:04:12.052Z,59.30
2018-05-10T17:06:38.975Z,59.50
2018-05-10T17:09:05.698Z,59.50
2018-05-10T17:11:32.246Z,59.90
2018-05-10T17:13:58.837Z,60.60
2018-05-10T17:16:25.431Z,60.90
2018-05-10T17:18:51.989Z,61.50
2018-05-10T17:21:18.605Z,61.70
2018-05-10T17:23:45.574Z,62.10
2018-05-10T17:26:12.141Z,62.10
2018-05-10T17:28:38.734Z,62.20
2018-05-10T17:31:05.463Z,62.60
2018-05-10T17:33:32.368Z,63.00
2018-05-10T17:35:59.025Z,63.10
2018-05-10T17:38:25.636Z,63.20
2018-05-10T17:40:52.221Z,63.60
2018-05-10T17:43:18.832Z,63.90
2018-05-10T17:45:45.396Z,64.10
2018-05-10T17:48:12.359Z,64.50
2018-05-10T17:50:39.329Z,64.50
2018-05-10T17:53:06.241Z,64.40
2018-05-10T17:55:32.849Z,64.40
2018-05-10T17:57:59.537Z,64.80
2018-05-10T18:00:26.160Z,65.10
2018-05-10T18:02:52.741Z,65.70
2018-05-10T18:05:19.305Z,66.40
2018-05-10T18:07:45.898Z,66.90
2018-05-10T18:10:12.459Z,67.30
2018-05-10T18:12:39.176Z,67.50
2018-05-10T18:15:06.158Z,67.80
2018-05-10T18:17:39.925Z,67.80
2018-05-10T18:20:06.495Z,68.30
2018-05-10T18:22:33.403Z,69.00
2018-05-10T18:24:59.987Z,69.00
2018-05-10T18:27:26.533Z,69.20
2018-05-10T18:29:53.553Z,69.50
2018-05-10T18:32:20.144Z,69.50
2018-05-10T18:34:47.102Z,70.00
2018-05-10T18:37:14.072Z,70.40
2018-05-10T18:39:40.736Z,70.40
2018-05-10T18:42:07.371Z,70.70
2018-05-10T18:44:33.947Z,70.60
2018-05-10T18:47:00.805Z,70.60
2018-05-10T18:49:27.437Z,70.70
2018-05-10T18:51:54.013Z,70.90
2018-05-10T18:54:21.312Z,70.60
2018-05-10T18:56:48.245Z,71.10
2018-05-10T18:59:14.840Z,71.10
2018-05-10T19:01:41.441Z,71.80
2018-05-10T19:04:08.005Z,72.00
2018-05-10T19:06:34.597Z,72.50
2018-05-10T19:09:02.211Z,72.80
2018-05-10T19:11:28.825Z,72.90
2018-05-10T19:13:56.370Z,72.70
2018-05-10T19:16:23.281Z,73.30
2018-05-10T19:18:49.902Z,73.30
2018-05-10T19:21:17.246Z,73.40
2018-05-10T19:23:43.903Z,73.60
2018-05-10T19:26:10.455Z,74.10
2018-05-10T19:28:37.074Z,73.70
2018-05-10T19:31:04.114Z,74.30
2018-05-10T19:33:30.671Z,74.30
2018-05-10T19:35:57.624Z,75.70
2018-05-10T19:38:24.279Z,75.70
2018-05-10T19:40:50.844Z,77.10
2018-05-10T19:43:17.926Z,78.60
2018-05-10T19:45:45.501Z,78.60
2018-05-10T19:48:12.072Z,79.30
2018-05-10T19:50:39.021Z,79.80
2018-05-10T19:53:05.627Z,79.80
2018-05-10T19:55:33.266Z,81.90
2018-05-10T19:57:59.814Z,81.90
2018-05-10T20:00:26.504Z,84.30
2018-05-10T20:02:53.887Z,84.80
2018-05-10T20:05:28.084Z,83.80
2018-05-10T20:07:54.684Z,83.70
2018-05-10T20:10:21.641Z,85.70
2018-05-10T20:12:48.236Z,87.50
2018-05-10T20:15:15.173Z,87.10
2018-05-10T20:17:41.723Z,87.10
2018-05-10T20:20:08.316Z,88.40
2018-05-10T20:22:35.149Z,89.10
2018-05-10T20:25:01.959Z,90.50
2018-05-10T20:27:28.819Z,88.50
2018-05-10T20:29:55.609Z,88.60
2018-05-10T20:32:22.918Z,87.70
2018-05-10T20:34:49.758Z,87.70
2018-05-10T20:37:16.597Z,87.90
2018-05-10T20:39:43.185Z,88.70
2018-05-10T20:42:09.732Z,87.80
2018-05-10T20:44:36.331Z,87.80
2018-05-10T20:47:02.936Z,88.70
2018-05-10T20:49:29.484Z,88.30
2018-05-10T20:51:56.071Z,87.30
2018-05-10T20:54:23.000Z,85.90
2018-05-10T20:56:49.584Z,86.00
2018-05-10T20:59:16.161Z,86.80
2018-05-10T21:01:42.714Z,86.70
2018-05-10T21:04:09.293Z,87.10
2018-05-10T21:06:35.857Z,87.30
2018-05-10T21:09:02.922Z,87.70
2018-05-10T21:11:29.888Z,87.40
2018-05-10T21:13:56.439Z,87.40
2018-05-10T21:16:23.993Z,87.60
2018-05-10T21:18:50.495Z,87.80
2018-05-10T21:21:17.144Z,87.50
2018-05-10T21:23:43.732Z,88.10
2018-05-10T21:26:10.724Z,86.00
2018-05-10T21:28:37.644Z,86.40
2018-05-10T21:31:04.224Z,86.40
2018-05-10T21:33:30.812Z,86.30
2018-05-10T21:35:57.348Z,87.10
2018-05-10T21:38:23.945Z,87.50
2018-05-10T21:40:50.894Z,86.60
2018-05-10T21:43:17.808Z,87.00
2018-05-10T21:45:44.385Z,87.00
2018-05-10T21:48:11.292Z,88.70
2018-05-10T21:50:37.862Z,88.70
2018-05-10T21:53:04.456Z,88.90
2018-05-10T21:58:05.625Z,86.80
2018-05-10T22:00:32.547Z,87.40
2018-05-10T22:03:14.005Z,87.40
2018-05-10T22:05:40.628Z,86.70
2018-05-10T22:08:07.540Z,86.50
2018-05-10T22:10:34.126Z,86.50
2018-05-10T22:13:00.721Z,86.90
2018-05-10T22:15:27.308Z,87.00
2018-05-10T22:17:53.880Z,85.40
2018-05-10T22:20:20.845Z,85.70
2018-05-10T22:22:47.809Z,85.50
2018-05-10T22:25:14.380Z,85.50
2018-05-10T22:27:40.972Z,86.10
2018-05-10T22:30:07.619Z,86.90
2018-05-10T22:32:34.169Z,86.80
2018-05-10T22:35:00.762Z,86.00
2018-05-10T22:37:27.361Z,86.40
2018-05-10T22:39:53.996Z,86.80
2018-05-10T22:42:20.612Z,86.30
2018-05-10T22:44:47.166Z,86.20
2018-05-10T22:47:13.768Z,86.00
2018-05-10T22:49:40.681Z,86.90
2018-05-10T22:52:07.257Z,86.90
2018-05-10T22:54:33.828Z,86.90
2018-05-10T22:57:00.732Z,87.00
2018-05-10T22:59:27.301Z,87.00
2018-05-10T23:01:53.848Z,86.90
2018-05-10T23:04:20.419Z,87.10
2018-05-10T23:06:47.418Z,88.70
2018-05-10T23:09:13.972Z,88.70
2018-05-10T23:11:40.553Z,87.30
2018-05-10T23:14:07.136Z,88.70
2018-05-10T23:16:33.725Z,89.00
2018-05-10T23:19:00.296Z,88.50
2018-05-10T23:21:26.840Z,89.80
2018-05-10T23:23:53.441Z,89.80
2018-05-10T23:26:19.989Z,89.60
2018-05-10T23:28:46.537Z,89.60
2018-05-10T23:31:13.128Z,90.10
2018-05-10T23:33:39.729Z,90.40
2018-05-10T23:36:06.275Z,90.10
2018-05-10T23:38:32.872Z,90.10
2018-05-10T23:40:59.421Z,91.10
2018-05-10T23:43:25.993Z,90.90
2018-05-10T23:45:52.949Z,89.10
2018-05-10T23:48:19.881Z,89.40
2018-05-10T23:50:46.500Z,89.40
2018-05-10T23:53:13.056Z,89.70
2018-05-10T23:55:39.633Z,90.00
2018-05-10T23:58:06.209Z,90.30
